Time;durP1;ratioP1;P1;durP2;ratioP2;P2;SDS_P1;SDS_P2;PMS_P1;PMS_P2;Temp;Humidity;BMP_temperature;BMP_pressure;BME280_temperature;BME280_humidity;BME280_pressure;Samples;Min_cycle;Max_cycle;Signal;HPM_P1;HPM_P2
2022/01/05 00:01:18;;;;;;;0.93;0.70;;;20.40;50.20;;;;;;6196175;28;20023;-74
2022/01/05 00:04:19;;;;;;;1.25;0.80;;;20.40;50.30;;;;;;6193948;28;20038;-74
2022/01/05 00:07:20;;;;;;;0.80;0.52;;;20.40;50.20;;;;;;6196494;28;20113;-74
2022/01/05 00:10:20;;;;;;;0.88;0.77;;;20.40;50.30;;;;;;6196511;28;20485;-74
2022/01/05 00:13:21;;;;;;;2.97;0.77;;;20.40;50.30;;;;;;6196341;28;20065;-74
2022/01/05 00:16:21;;;;;;;1.30;0.88;;;20.40;50.30;;;;;;6195161;28;20026;-74
2022/01/05 00:19:22;;;;;;;1.10;0.95;;;20.40;50.30;;;;;;6187213;28;20149;-74
2022/01/05 00:22:23;;;;;;;0.88;0.80;;;20.40;50.30;;;;;;6193151;28;20022;-75
2022/01/05 00:25:24;;;;;;;1.30;0.80;;;20.40;50.20;;;;;;6196083;28;20374;-74
2022/01/05 00:28:25;;;;;;;0.95;0.77;;;20.40;50.30;;;;;;6195994;28;20560;-74
2022/01/05 00:31:26;;;;;;;0.60;0.60;;;20.40;50.30;;;;;;6195667;28;20026;-74
2022/01/05 00:34:26;;;;;;;1.52;0.82;;;20.40;50.30;;;;;;6177899;28;20100;-74
2022/01/05 00:37:27;;;;;;;0.98;0.77;;;20.40;50.30;;;;;;6195794;28;20022;-72
2022/01/05 00:40:27;;;;;;;0.90;0.70;;;20.40;50.30;;;;;;6195824;28;20034;-72
2022/01/05 00:43:28;;;;;;;0.80;0.70;;;20.40;50.30;;;;;;6195400;28;20113;-72
2022/01/05 00:46:29;;;;;;;1.20;0.90;;;20.40;50.20;;;;;;6195459;28;20023;-72
2022/01/05 00:49:29;;;;;;;1.15;0.82;;;20.40;50.20;;;;;;6190512;28;20054;-72
2022/01/05 00:52:30;;;;;;;1.48;0.85;;;20.40;50.30;;;;;;6199474;28;20077;-72
2022/01/05 00:55:30;;;;;;;1.23;0.80;;;20.40;50.20;;;;;;6198519;28;20068;-71
2022/01/05 00:58:32;;;;;;;1.10;0.90;;;20.40;50.20;;;;;;6195286;28;20034;-72
2022/01/05 01:01:33;;;;;;;1.08;0.88;;;20.40;50.30;;;;;;6194846;28;20038;-72
2022/01/05 01:04:33;;;;;;;1.58;0.80;;;20.40;50.20;;;;;;6176838;28;20494;-72
2022/01/05 01:07:34;;;;;;;0.80;0.70;;;20.40;50.20;;;;;;6195163;28;20133;-72
2022/01/05 01:10:34;;;;;;;1.55;0.90;;;20.40;50.20;;;;;;6194715;28;20520;-72
2022/01/05 01:13:35;;;;;;;1.05;0.70;;;20.40;50.30;;;;;;6193475;28;20076;-72
2022/01/05 01:16:35;;;;;;;0.60;0.60;;;20.40;50.30;;;;;;6194439;28;20037;-72
2022/01/05 01:19:36;;;;;;;0.95;0.82;;;20.40;50.20;;;;;;6194930;28;20034;-73
2022/01/05 01:22:37;;;;;;;2.05;0.90;;;20.40;50.20;;;;;;6194272;28;20034;-74
2022/01/05 01:25:37;;;;;;;0.75;0.70;;;20.40;50.30;;;;;;6179795;28;20022;-74
2022/01/05 01:28:38;;;;;;;0.98;0.70;;;20.40;50.20;;;;;;6190194;28;20034;-74
2022/01/05 01:31:38;;;;;;;0.80;0.75;;;20.40;50.20;;;;;;6194349;28;20100;-73
2022/01/05 01:34:39;;;;;;;0.70;0.70;;;20.40;50.30;;;;;;6194576;28;20029;-74
2022/01/05 01:37:39;;;;;;;0.82;0.60;;;20.40;50.20;;;;;;6206192;28;20041;-74
2022/01/05 01:40:40;;;;;;;1.08;0.70;;;20.40;50.20;;;;;;6202558;28;20027;-74
2022/01/05 01:43:40;;;;;;;0.47;0.47;;;20.40;50.20;;;;;;6194316;28;20457;-73
2022/01/05 01:46:41;;;;;;;0.63;0.60;;;20.40;50.20;;;;;;6193648;28;20430;-73
2022/01/05 01:49:42;;;;;;;0.75;0.63;;;20.40;50.30;;;;;;6194484;28;20031;-74
2022/01/05 01:52:42;;;;;;;1.05;0.57;;;20.40;50.20;;;;;;6189296;28;20045;-73
2022/01/05 01:55:43;;;;;;;1.27;0.70;;;20.40;50.20;;;;;;6194077;28;20027;-74
2022/01/05 01:58:45;;;;;;;1.45;0.80;;;20.40;50.30;;;;;;6199396;28;20494;-74
2022/01/05 02:01:45;;;;;;;0.63;0.50;;;20.40;50.20;;;;;;6201432;28;20033;-73
2022/01/05 02:04:46;;;;;;;0.70;0.60;;;20.40;50.20;;;;;;6199317;28;20049;-74
2022/01/05 02:07:46;;;;;;;1.00;0.65;;;20.40;50.20;;;;;;6194155;28;20045;-74
2022/01/05 02:10:49;;;;;;;1.10;0.70;;;20.40;50.20;;;;;;6193680;28;20031;-74
2022/01/05 02:13:49;;;;;;;0.50;0.50;;;20.40;50.20;;;;;;6194096;28;20405;-74
2022/01/05 02:16:50;;;;;;;0.60;0.52;;;20.40;50.20;;;;;;6197706;28;20117;-73
2022/01/05 02:19:51;;;;;;;0.55;0.50;;;20.40;50.30;;;;;;6193882;28;20455;-74
2022/01/05 02:22:52;;;;;;;0.88;0.50;;;20.40;50.20;;;;;;6194036;28;20053;-74
2022/01/05 02:25:53;;;;;;;1.48;0.50;;;20.40;50.20;;;;;;6190953;28;20022;-72
2022/01/05 02:28:53;;;;;;;1.13;0.63;;;20.30;50.80;;;;;;6191189;28;20038;-72
2022/01/05 02:31:56;;;;;;;0.95;0.50;;;20.40;50.20;;;;;;6193030;28;20037;-74
2022/01/05 02:34:57;;;;;;;0.90;0.60;;;20.30;50.20;;;;;;6194024;28;20473;-74
2022/01/05 02:37:58;;;;;;;1.52;0.60;;;20.40;50.20;;;;;;6193539;28;20034;-74
2022/01/05 02:41:08;;;;;;;1.42;0.70;;;20.30;50.20;;;;;;6193947;28;20026;-74
2022/01/05 02:44:09;;;;;;;0.68;0.40;;;20.40;50.20;;;;;;6198507;28;20041;-74
2022/01/05 02:47:09;;;;;;;1.13;0.63;;;20.30;50.10;;;;;;6197764;28;20552;-74
2022/01/05 02:50:11;;;;;;;0.95;0.60;;;20.40;50.20;;;;;;6212429;28;20117;-73
2022/01/05 02:53:12;;;;;;;0.65;0.55;;;20.30;50.20;;;;;;6198517;28;20025;-74
2022/01/05 02:56:13;;;;;;;1.45;0.90;;;20.30;50.20;;;;;;6197632;28;20621;-73
2022/01/05 02:59:13;;;;;;;0.98;0.63;;;20.30;50.20;;;;;;6209481;28;20045;-74
2022/01/05 03:02:14;;;;;;;0.57;0.52;;;20.30;50.20;;;;;;6203346;28;20413;-74
2022/01/05 03:05:15;;;;;;;0.75;0.55;;;20.30;50.10;;;;;;6197062;28;20077;-75
2022/01/05 03:08:16;;;;;;;0.63;0.50;;;20.30;50.20;;;;;;6197497;28;20057;-74
2022/01/05 03:11:16;;;;;;;1.23;0.70;;;20.30;50.20;;;;;;6197946;28;20052;-74
2022/01/05 03:14:17;;;;;;;0.63;0.47;;;20.30;50.20;;;;;;6197417;28;20032;-74
2022/01/05 03:17:18;;;;;;;2.35;0.57;;;20.30;50.10;;;;;;6197841;28;20029;-74
2022/01/05 03:20:19;;;;;;;0.68;0.50;;;20.30;50.20;;;;;;6197944;28;20135;-74
2022/01/05 03:23:20;;;;;;;0.60;0.60;;;20.30;50.20;;;;;;6197046;28;20030;-73
2022/01/05 03:26:20;;;;;;;0.63;0.60;;;20.30;50.20;;;;;;6197384;28;20050;-74
2022/01/05 03:29:21;;;;;;;0.82;0.50;;;20.30;50.20;;;;;;6197226;28;20026;-74
2022/01/05 03:32:23;;;;;;;1.00;0.68;;;20.30;50.20;;;;;;6196799;28;20495;-74
2022/01/05 03:35:23;;;;;;;0.75;0.47;;;20.30;50.20;;;;;;6193258;28;20053;-73
2022/01/05 03:38:24;;;;;;;0.63;0.40;;;20.30;50.10;;;;;;6196405;28;20038;-74
2022/01/05 03:41:25;;;;;;;0.60;0.50;;;20.30;50.20;;;;;;6196927;28;20462;-74
2022/01/05 03:44:26;;;;;;;0.70;0.60;;;20.30;50.20;;;;;;6196650;28;20034;-73
2022/01/05 03:47:27;;;;;;;0.70;0.50;;;20.30;50.20;;;;;;6196565;28;20429;-75
2022/01/05 03:50:27;;;;;;;0.52;0.40;;;20.30;50.20;;;;;;6197250;28;20027;-74
2022/01/05 03:53:28;;;;;;;3.35;0.85;;;20.30;50.20;;;;;;6196595;28;20019;-74
2022/01/05 03:56:28;;;;;;;0.98;0.60;;;20.30;50.20;;;;;;6196297;28;20105;-74
2022/01/05 04:03:26;;;;;;;0.50;0.50;;;20.30;50.20;;;;;;6195675;28;20046;-74
2022/01/05 04:06:26;;;;;;;1.08;0.52;;;20.30;50.20;;;;;;6196663;28;20072;-74
2022/01/05 04:09:27;;;;;;;1.25;0.60;;;20.30;50.20;;;;;;6196010;28;20069;-74
2022/01/05 04:12:27;;;;;;;1.15;0.60;;;20.30;50.20;;;;;;6195401;28;20022;-72
2022/01/05 04:15:28;;;;;;;0.90;0.43;;;20.30;50.20;;;;;;6212874;28;20022;-72
2022/01/05 04:18:29;;;;;;;2.15;0.50;;;20.30;50.20;;;;;;6201583;28;20070;-72
2022/01/05 04:21:29;;;;;;;0.63;0.50;;;20.30;50.20;;;;;;6178235;28;20032;-72
2022/01/05 04:24:30;;;;;;;0.50;0.50;;;20.30;50.10;;;;;;6195860;28;20381;-74
2022/01/05 04:27:31;;;;;;;0.55;0.43;;;20.30;50.10;;;;;;6195087;28;20030;-74
2022/01/05 04:30:31;;;;;;;0.55;0.50;;;20.30;50.10;;;;;;6195750;28;20034;-74
2022/01/05 04:33:32;;;;;;;0.52;0.40;;;20.30;50.10;;;;;;6195015;28;20038;-74
2022/01/05 04:36:33;;;;;;;0.50;0.50;;;20.30;50.10;;;;;;6195873;28;20029;-74
2022/01/05 04:39:34;;;;;;;1.40;0.55;;;20.30;50.10;;;;;;6195433;28;20039;-74
2022/01/05 04:42:34;;;;;;;1.13;0.57;;;20.30;50.10;;;;;;6194986;28;20062;-74
2022/01/05 04:45:35;;;;;;;1.05;0.40;;;20.30;50.10;;;;;;6202763;28;20052;-74
2022/01/05 04:48:36;;;;;;;0.47;0.45;;;20.30;50.10;;;;;;6198659;28;20089;-74
2022/01/05 04:51:36;;;;;;;0.30;0.30;;;20.30;50.10;;;;;;6196401;28;20109;-74
2022/01/05 04:54:37;;;;;;;0.70;0.40;;;20.30;50.10;;;;;;6196291;28;20034;-74
2022/01/05 04:57:38;;;;;;;0.40;0.40;;;20.30;50.10;;;;;;6196154;28;20436;-74
2022/01/05 05:00:38;;;;;;;1.13;0.73;;;20.30;50.10;;;;;;6195084;28;20023;-73
2022/01/05 05:03:39;;;;;;;0.65;0.50;;;20.30;50.10;;;;;;6193206;28;20108;-74
2022/01/05 05:06:39;;;;;;;0.73;0.40;;;20.30;50.00;;;;;;6173031;28;20030;-74
2022/01/05 05:09:40;;;;;;;1.25;0.40;;;20.30;50.00;;;;;;6194929;28;20034;-74
2022/01/05 05:12:40;;;;;;;0.60;0.35;;;20.30;50.00;;;;;;6195094;28;20084;-74
2022/01/05 05:15:41;;;;;;;0.60;0.50;;;20.30;50.00;;;;;;6194902;28;20025;-73
2022/01/05 05:18:41;;;;;;;0.90;0.40;;;20.20;49.90;;;;;;6189469;28;20371;-74
2022/01/05 05:21:42;;;;;;;1.48;0.70;;;20.30;50.10;;;;;;6194859;28;20057;-73
2022/01/05 05:24:42;;;;;;;0.90;0.32;;;20.30;50.00;;;;;;6194654;28;20026;-74
2022/01/05 05:27:43;;;;;;;1.25;0.77;;;20.30;50.10;;;;;;6194654;28;20034;-74
2022/01/05 05:30:43;;;;;;;0.68;0.40;;;20.30;49.90;;;;;;6194635;28;20477;-74
2022/01/05 05:33:44;;;;;;;2.08;0.50;;;20.30;50.00;;;;;;6194886;28;20022;-73
2022/01/05 05:36:45;;;;;;;0.40;0.40;;;20.30;50.00;;;;;;6219056;28;20037;-74
2022/01/05 05:39:45;;;;;;;1.38;0.40;;;20.30;50.00;;;;;;6200177;28;20065;-74
2022/01/05 05:42:46;;;;;;;0.47;0.30;;;20.30;50.00;;;;;;6193516;28;20351;-73
2022/01/05 05:45:46;;;;;;;0.82;0.50;;;20.30;50.00;;;;;;6193962;28;20030;-74
2022/01/05 05:48:47;;;;;;;2.20;0.50;;;20.30;50.00;;;;;;6193657;28;20040;-74
2022/01/05 05:51:47;;;;;;;0.52;0.30;;;20.30;50.00;;;;;;6207250;28;20088;-74
2022/01/05 05:54:48;;;;;;;1.05;0.50;;;20.30;50.00;;;;;;6201056;28;20429;-74
2022/01/05 05:57:49;;;;;;;0.65;0.50;;;20.30;50.00;;;;;;6194282;28;20117;-73
2022/01/05 06:00:49;;;;;;;0.85;0.32;;;20.30;50.00;;;;;;6192907;28;20388;-74
2022/01/05 06:03:50;;;;;;;0.60;0.45;;;20.30;50.00;;;;;;6180240;28;20050;-73
2022/01/05 06:06:50;;;;;;;0.80;0.40;;;20.30;50.00;;;;;;6193934;28;20057;-73
2022/01/05 06:09:51;;;;;;;0.82;0.32;;;20.30;50.00;;;;;;6193557;28;20030;-74
2022/01/05 06:12:51;;;;;;;0.70;0.47;;;20.30;50.00;;;;;;6193789;28;20031;-74
2022/01/05 06:15:52;;;;;;;0.60;0.45;;;20.30;50.00;;;;;;6197758;28;20140;-74
2022/01/05 06:18:52;;;;;;;0.55;0.30;;;20.30;49.90;;;;;;6198946;28;20065;-74
2022/01/05 06:21:53;;;;;;;0.80;0.55;;;20.30;49.90;;;;;;6198702;28;20026;-74
2022/01/05 06:24:53;;;;;;;0.63;0.40;;;20.30;49.90;;;;;;6197923;28;20030;-74
2022/01/05 06:27:54;;;;;;;0.85;0.43;;;20.30;49.90;;;;;;6199120;28;20022;-74
2022/01/05 06:30:54;;;;;;;1.42;0.52;;;20.30;49.90;;;;;;6198232;28;20478;-72
2022/01/05 06:33:55;;;;;;;1.20;0.60;;;20.30;49.90;;;;;;6198117;28;20029;-72
2022/01/05 06:36:56;;;;;;;0.35;0.35;;;20.30;49.90;;;;;;6198643;28;20500;-72
2022/01/05 06:39:57;;;;;;;0.80;0.45;;;20.30;50.60;;;;;;6195903;28;20089;-72
2022/01/05 06:42:59;;;;;;;0.95;0.55;;;20.30;49.90;;;;;;6203912;28;20492;-73
2022/01/05 06:45:59;;;;;;;1.45;0.50;;;20.30;49.90;;;;;;6197692;28;20039;-72
2022/01/05 06:49:00;;;;;;;0.88;0.43;;;20.30;49.90;;;;;;6197772;28;20077;-73
2022/01/05 06:52:00;;;;;;;0.47;0.30;;;20.30;49.90;;;;;;6198205;28;20097;-73
2022/01/05 06:55:01;;;;;;;1.00;0.45;;;20.30;49.90;;;;;;6194297;28;20268;-73
2022/01/05 06:58:02;;;;;;;0.65;0.40;;;20.30;49.90;;;;;;6197803;28;20044;-72
2022/01/05 07:01:02;;;;;;;0.52;0.30;;;20.30;49.90;;;;;;6194787;28;20026;-72
2022/01/05 07:04:03;;;;;;;0.40;0.40;;;20.30;49.90;;;;;;6198141;28;20062;-73
2022/01/05 07:07:04;;;;;;;0.68;0.40;;;20.30;49.90;;;;;;6198883;28;20019;-73
2022/01/05 07:10:06;;;;;;;0.90;0.30;;;20.30;49.90;;;;;;6197658;28;20045;-73
2022/01/05 07:13:07;;;;;;;0.73;0.55;;;20.30;49.90;;;;;;6198133;28;20035;-73
2022/01/05 07:16:08;;;;;;;0.75;0.50;;;20.30;49.90;;;;;;6198692;28;20089;-73
2022/01/05 07:19:08;;;;;;;1.27;0.40;;;20.30;49.90;;;;;;6198307;28;20072;-73
2022/01/05 07:22:09;;;;;;;0.82;0.40;;;20.30;49.90;;;;;;6197886;28;20145;-73
2022/01/05 07:25:09;;;;;;;1.45;0.40;;;20.30;50.00;;;;;;6197562;28;20030;-73
2022/01/05 07:28:10;;;;;;;2.13;0.60;;;20.30;50.00;;;;;;6198748;28;20018;-73
2022/01/05 07:31:10;;;;;;;1.02;0.50;;;20.30;50.00;;;;;;6199140;28;20026;-73
2022/01/05 07:34:12;;;;;;;2.45;0.60;;;20.30;50.00;;;;;;6198017;28;20034;-72
2022/01/05 07:37:12;;;;;;;0.73;0.40;;;20.40;50.10;;;;;;6195878;28;20038;-72
2022/01/05 07:40:13;;;;;;;0.63;0.30;;;20.40;50.10;;;;;;6198025;28;20113;-72
2022/01/05 07:43:13;;;;;;;0.40;0.30;;;20.40;50.10;;;;;;6198355;28;20037;-73
2022/01/05 07:46:14;;;;;;;0.77;0.40;;;20.30;50.00;;;;;;6195123;28;20393;-72
2022/01/05 07:49:14;;;;;;;4.18;0.40;;;20.40;50.60;;;;;;6197816;28;20030;-72
2022/01/05 07:52:15;;;;;;;1.85;0.47;;;20.40;50.10;;;;;;6197564;28;20026;-72
2022/01/05 07:55:15;;;;;;;1.13;0.50;;;20.40;50.00;;;;;;6197388;28;20054;-72
2022/01/05 07:58:16;;;;;;;2.25;0.70;;;20.50;50.00;;;;;;6196909;28;20030;-72
2022/01/05 08:01:18;;;;;;;2.45;0.52;;;20.50;49.90;;;;;;6195317;28;20042;-73
2022/01/05 08:04:19;;;;;;;1.20;0.60;;;20.50;49.80;;;;;;6196014;28;20034;-72
2022/01/05 08:07:20;;;;;;;2.28;0.63;;;20.50;49.70;;;;;;6194015;28;20484;-73
2022/01/05 08:10:20;;;;;;;0.45;0.40;;;20.50;49.70;;;;;;6194505;28;20083;-72
2022/01/05 08:13:21;;;;;;;2.20;0.60;;;20.50;49.60;;;;;;6196173;28;20030;-72
2022/01/05 08:16:21;;;;;;;2.78;0.65;;;20.60;49.70;;;;;;6194929;28;20023;-73
2022/01/05 08:19:22;;;;;;;1.00;0.50;;;20.60;49.70;;;;;;6195033;28;20042;-72
2022/01/05 08:22:22;;;;;;;3.17;0.70;;;20.60;49.70;;;;;;6195853;28;20426;-72
2022/01/05 08:25:23;;;;;;;1.95;0.90;;;20.60;49.70;;;;;;6196724;28;20560;-72
2022/01/05 08:28:24;;;;;;;1.77;0.60;;;20.60;49.80;;;;;;6196815;28;20023;-72
2022/01/05 08:31:24;;;;;;;1.92;0.60;;;20.60;49.80;;;;;;6196613;28;20512;-72
2022/01/05 08:34:25;;;;;;;2.13;0.77;;;20.50;49.70;;;;;;6197625;28;20032;-72
2022/01/05 08:37:25;;;;;;;2.70;0.70;;;20.50;49.80;;;;;;6195505;28;20053;-72
2022/01/05 08:40:27;;;;;;;2.28;0.77;;;20.50;50.60;;;;;;6194040;28;20468;-72
2022/01/05 08:43:27;;;;;;;1.77;0.50;;;20.50;50.00;;;;;;6177191;28;20038;-72
2022/01/05 08:46:28;;;;;;;1.00;0.30;;;20.50;50.00;;;;;;6193204;28;20149;-72
2022/01/05 08:49:28;;;;;;;0.77;0.38;;;20.50;50.00;;;;;;6197168;28;20121;-72
2022/01/05 08:52:29;;;;;;;1.15;0.50;;;20.50;50.00;;;;;;6195728;28;20113;-72
2022/01/05 08:55:33;;;;;;;0.77;0.40;;;20.50;50.00;;;;;;6194065;28;20503;-72
2022/01/05 08:58:34;;;;;;;0.85;0.43;;;20.50;50.00;;;;;;6196034;28;20014;-72
2022/01/05 09:01:35;;;;;;;3.15;0.50;;;20.40;50.00;;;;;;6192920;28;20101;-72
2022/01/05 09:04:35;;;;;;;3.65;0.70;;;20.50;50.00;;;;;;6196340;28;20030;-73
2022/01/05 09:07:36;;;;;;;11.32;0.80;;;20.50;50.00;;;;;;6196078;28;20061;-72
2022/01/05 09:10:38;;;;;;;6.65;0.60;;;20.50;50.40;;;;;;6195267;28;20057;-73
2022/01/05 09:13:38;;;;;;;2.55;0.40;;;20.50;50.00;;;;;;6196249;28;20478;-73
2022/01/05 09:16:39;;;;;;;1.55;0.60;;;20.50;50.00;;;;;;6195761;28;20034;-72
2022/01/05 09:19:39;;;;;;;2.53;0.73;;;20.50;50.00;;;;;;6196515;28;20038;-72
2022/01/05 09:22:40;;;;;;;0.63;0.32;;;20.50;50.10;;;;;;6195511;28;20034;-72
2022/01/05 09:25:42;;;;;;;1.17;0.57;;;20.50;50.10;;;;;;6192856;28;20397;-72
2022/01/05 09:28:44;;;;;;;4.78;0.43;;;20.50;50.10;;;;;;6194895;28;20113;-73
2022/01/05 09:31:45;;;;;;;1.80;0.63;;;20.50;50.10;;;;;;6194618;28;20087;-72
2022/01/05 09:34:45;;;;;;;1.83;0.50;;;20.50;50.10;;;;;;6196132;28;20029;-72
2022/01/05 09:37:56;;;;;;;1.05;0.52;;;20.50;50.10;;;;;;6192419;28;20417;-73
2022/01/05 09:44:17;;;;;;;4.15;1.10;;;20.40;49.10;;;;;;6191659;28;20026;-72
2022/01/05 09:47:41;;;;;;;2.00;0.90;;;20.40;48.80;;;;;;6194747;28;20073;-73
2022/01/05 09:50:55;;;;;;;3.90;0.90;;;20.40;49.20;;;;;;6193026;28;20033;-73
2022/01/05 09:53:59;;;;;;;2.33;1.10;;;20.40;49.20;;;;;;6194637;28;20069;-73
2022/01/05 09:57:01;;;;;;;2.58;0.90;;;20.40;49.30;;;;;;6195597;28;20035;-72
2022/01/05 10:00:02;;;;;;;1.58;0.73;;;20.40;49.30;;;;;;6202364;28;20069;-72
2022/01/05 10:03:04;;;;;;;2.33;0.80;;;20.40;49.40;;;;;;6194803;28;20505;-72
2022/01/05 10:06:04;;;;;;;3.17;1.08;;;20.40;49.40;;;;;;6195806;28;20393;-73
2022/01/05 10:09:05;;;;;;;2.05;0.70;;;20.40;49.30;;;;;;6197127;28;20106;-72
2022/01/05 10:12:07;;;;;;;3.42;0.82;;;20.40;49.30;;;;;;6198139;28;20029;-72
2022/01/05 10:15:08;;;;;;;4.32;0.95;;;20.40;49.40;;;;;;6180730;28;20036;-72
2022/01/05 10:18:22;;;;;;;3.28;1.00;;;20.40;49.40;;;;;;6194976;28;20667;-74
2022/01/05 10:21:22;;;;;;;3.60;0.90;;;20.40;49.50;;;;;;6194437;28;20085;-73
2022/01/05 10:24:43;;;;;;;2.20;0.75;;;20.40;49.60;;;;;;6193924;28;20509;-73
2022/01/05 10:27:55;;;;;;;2.33;0.90;;;20.50;49.50;;;;;;6191967;28;20189;-74
2022/01/05 10:30:56;;;;;;;2.33;0.90;;;20.40;49.50;;;;;;6190673;28;20030;-73
2022/01/05 10:33:58;;;;;;;2.55;0.93;;;20.50;49.50;;;;;;6193781;28;20049;-73
2022/01/05 10:37:03;;;;;;;3.53;1.20;;;20.40;49.50;;;;;;6191659;28;20049;-73
2022/01/05 10:40:09;;;;;;;2.70;0.90;;;20.50;49.50;;;;;;6194785;28;20077;-73
2022/01/05 10:43:11;;;;;;;3.53;0.90;;;20.40;49.70;;;;;;6194838;28;20037;-73
2022/01/05 10:46:35;;;;;;;5.03;1.35;;;20.30;49.00;;;;;;6195197;28;20065;-73
2022/01/05 10:49:38;;;;;;;5.43;1.60;;;20.30;47.80;;;;;;6197360;28;20022;-73
2022/01/05 10:52:41;;;;;;;7.68;1.60;;;20.30;46.20;;;;;;6194711;28;20030;-73
2022/01/05 10:55:44;;;;;;;7.60;1.83;;;20.30;45.80;;;;;;6192065;28;20092;-73
2022/01/05 10:58:45;;;;;;;6.38;2.17;;;20.20;45.00;;;;;;6194626;28;20070;-73
2022/01/05 11:01:46;;;;;;;6.50;2.40;;;20.20;44.30;;;;;;6195246;28;20038;-73
2022/01/05 11:04:47;;;;;;;9.23;3.15;;;20.20;44.10;;;;;;6201206;28;20030;-73
2022/01/05 11:07:47;;;;;;;12.15;4.15;;;20.20;43.80;;;;;;6199936;28;20378;-73
2022/01/05 11:10:48;;;;;;;5.60;2.42;;;20.20;43.50;;;;;;6199587;28;20030;-73
2022/01/05 11:13:53;;;;;;;9.75;3.10;;;20.20;44.20;;;;;;6199356;28;20034;-73
2022/01/05 11:16:54;;;;;;;15.68;3.17;;;20.20;44.30;;;;;;6182136;28;20114;-73
2022/01/05 11:20:09;;;;;;;8.23;2.90;;;20.20;44.70;;;;;;6199111;28;20065;-73
2022/01/05 11:23:11;;;;;;;9.85;2.97;;;20.20;43.90;;;;;;6194511;28;20041;-73
2022/01/05 11:26:13;;;;;;;9.15;3.28;;;20.20;45.30;;;;;;6199164;28;20033;-73
2022/01/05 11:29:14;;;;;;;9.73;2.70;;;20.20;43.50;;;;;;6198644;28;20399;-73
2022/01/05 11:32:20;;;;;;;8.93;2.75;;;20.10;42.90;;;;;;6198342;28;20034;-73
2022/01/05 11:35:21;;;;;;;9.43;3.00;;;20.10;43.70;;;;;;6181245;28;20034;-73
2022/01/05 11:38:21;;;;;;;11.43;3.08;;;20.10;44.10;;;;;;6191198;28;20037;-72
2022/01/05 11:41:22;;;;;;;11.45;3.20;;;20.10;43.40;;;;;;6198817;28;20034;-73
2022/01/05 11:44:28;;;;;;;7.72;2.53;;;20.10;42.90;;;;;;6197705;28;20015;-73
2022/01/05 11:47:31;;;;;;;10.00;2.72;;;20.10;44.30;;;;;;6194976;28;20038;-73
2022/01/05 11:50:32;;;;;;;8.98;3.08;;;20.10;42.30;;;;;;6198223;28;20026;-73
2022/01/05 11:53:34;;;;;;;10.13;3.22;;;20.10;42.30;;;;;;6180078;28;20496;-73
2022/01/05 11:56:45;;;;;;;12.30;3.80;;;20.10;41.50;;;;;;6198029;28;20037;-73
2022/01/05 11:59:45;;;;;;;9.05;3.05;;;20.10;41.20;;;;;;6195017;28;20093;-73
2022/01/05 12:02:46;;;;;;;8.40;2.75;;;20.10;40.80;;;;;;6196897;28;20505;-73
2022/01/05 12:06:05;;;;;;;12.30;3.05;;;20.10;41.10;;;;;;6197869;28;20026;-74
2022/01/05 12:09:22;;;;;;;6.28;2.65;;;20.10;41.50;;;;;;6197808;28;20034;-73
2022/01/05 12:12:25;;;;;;;6.72;2.40;;;20.10;41.70;;;;;;6192465;28;20408;-73
2022/01/05 12:15:52;;;;;;;9.50;2.85;;;20.10;42.00;;;;;;6192207;28;20026;-74
2022/01/05 12:19:12;;;;;;;7.65;2.42;;;20.20;42.40;;;;;;6197724;28;20038;-74
2022/01/05 12:22:25;;;;;;;7.97;2.58;;;20.20;42.70;;;;;;6201332;28;20041;-73
2022/01/05 12:25:25;;;;;;;8.65;2.65;;;20.20;42.80;;;;;;6197449;28;20038;-73
2022/01/05 12:28:28;;;;;;;5.05;2.10;;;20.20;42.90;;;;;;6193365;28;20034;-73
2022/01/05 12:31:48;;;;;;;8.27;2.60;;;20.20;43.20;;;;;;6196638;28;20504;-74
2022/01/05 12:34:57;;;;;;;5.10;2.20;;;20.20;43.30;;;;;;6195808;28;20492;-73
2022/01/05 12:38:04;;;;;;;6.20;2.35;;;20.20;43.40;;;;;;6197470;28;20018;-74
2022/01/05 12:41:26;;;;;;;5.22;1.92;;;20.20;43.60;;;;;;6191549;28;20069;-73
2022/01/05 12:44:30;;;;;;;4.93;1.83;;;20.20;43.60;;;;;;6193503;28;20034;-73
2022/01/05 12:47:35;;;;;;;4.82;2.05;;;20.20;43.70;;;;;;6195557;28;20041;-72
2022/01/05 12:50:37;;;;;;;5.68;1.90;;;20.20;43.80;;;;;;6196455;28;20393;-73
2022/01/05 12:54:01;;;;;;;6.20;1.80;;;20.20;43.90;;;;;;6197785;28;20040;-73
2022/01/05 12:57:04;;;;;;;6.05;2.60;;;20.20;44.00;;;;;;6196939;28;20046;-73
2022/01/05 13:00:07;;;;;;;9.40;2.47;;;20.20;43.60;;;;;;6196140;28;20508;-73
2022/01/05 13:03:34;;;;;;;5.22;1.83;;;20.20;43.90;;;;;;6196909;28;20058;-73
2022/01/05 13:06:36;;;;;;;3.92;1.50;;;20.20;43.90;;;;;;6196504;28;20038;-74
2022/01/05 13:10:02;;;;;;;4.72;1.90;;;20.20;43.90;;;;;;6198447;28;20147;-73
2022/01/05 13:13:08;;;;;;;7.05;2.03;;;20.20;44.40;;;;;;6196276;28;20034;-74
2022/01/05 13:16:09;;;;;;;6.80;2.20;;;20.20;43.90;;;;;;6196908;28;20121;-73
2022/01/05 13:19:25;;;;;;;7.90;2.22;;;20.10;42.50;;;;;;6196521;28;20559;-73
2022/01/05 13:22:31;;;;;;;7.13;2.30;;;20.20;41.70;;;;;;6195680;28;20036;-73
2022/01/05 13:25:33;;;;;;;7.88;2.47;;;20.20;41.80;;;;;;6192990;28;20037;-73
2022/01/05 13:28:37;;;;;;;6.95;2.35;;;20.20;42.20;;;;;;6196656;28;20073;-73
2022/01/05 13:31:38;;;;;;;6.32;1.98;;;20.20;42.40;;;;;;6195676;28;20481;-73
2022/01/05 13:34:45;;;;;;;7.70;2.60;;;20.20;42.60;;;;;;6196366;28;20065;-73
2022/01/05 13:37:47;;;;;;;9.30;2.50;;;20.20;42.70;;;;;;6145023;29;20027;-73
2022/01/05 13:40:49;;;;;;;5.43;2.10;;;20.20;42.90;;;;;;6144489;29;20055;-73
2022/01/05 13:43:49;;;;;;;5.53;2.00;;;20.20;43.20;;;;;;6143951;28;20584;-73
2022/01/05 13:46:50;;;;;;;6.50;2.15;;;20.20;44.00;;;;;;6141520;29;20043;-73
2022/01/05 13:50:13;;;;;;;3.85;1.75;;;20.20;43.50;;;;;;6144995;28;20040;-72
2022/01/05 13:53:19;;;;;;;5.00;1.70;;;20.20;43.70;;;;;;6144887;29;20486;-73
2022/01/05 13:56:22;;;;;;;4.97;1.90;;;20.20;43.80;;;;;;6144890;29;20486;-73
2022/01/05 13:59:22;;;;;;;3.20;1.70;;;20.20;44.00;;;;;;6144960;29;20043;-73
2022/01/05 14:02:23;;;;;;;4.85;1.70;;;20.20;44.20;;;;;;6143858;28;20074;-73
2022/01/05 14:05:23;;;;;;;5.07;1.60;;;20.20;44.20;;;;;;6143952;28;20122;-73
2022/01/05 14:08:41;;;;;;;4.80;1.70;;;20.20;44.10;;;;;;6169036;28;20030;-73
2022/01/05 14:11:43;;;;;;;3.53;1.60;;;20.20;44.30;;;;;;6195804;28;20030;-73
2022/01/05 14:14:57;;;;;;;4.15;1.73;;;20.20;44.40;;;;;;6195511;28;20500;-73
2022/01/05 14:18:11;;;;;;;2.83;1.42;;;20.20;44.60;;;;;;6192363;28;20032;-73
2022/01/05 14:21:12;;;;;;;3.42;1.33;;;20.20;44.60;;;;;;6194831;28;20043;-73
2022/01/05 14:24:28;;;;;;;4.53;1.48;;;20.20;44.60;;;;;;6194563;28;20504;-73
2022/01/05 14:27:34;;;;;;;;;;;20.20;44.80;;;;;;6193187;28;20057;-73
2022/01/05 14:30:35;;;;;;;10.85;1.77;;;20.20;45.30;;;;;;6185447;28;19924;-72
2022/01/05 14:33:57;;;;;;;7.28;2.28;;;20.40;45.30;;;;;;6193126;28;20030;-73
2022/01/05 14:37:09;;;;;;;5.47;1.63;;;20.40;45.20;;;;;;6197036;28;20077;-73
2022/01/05 14:40:22;;;;;;;8.20;1.38;;;20.50;45.00;;;;;;6200913;28;20037;-72
2022/01/05 14:43:23;;;;;;;6.30;1.30;;;20.50;45.10;;;;;;6199885;28;20129;-73
2022/01/05 14:46:23;;;;;;;2.65;1.40;;;20.50;45.10;;;;;;6199559;28;20032;-73
2022/01/05 14:49:26;;;;;;;2.42;1.10;;;20.50;44.90;;;;;;6205729;28;20513;-72
2022/01/05 14:52:30;;;;;;;4.03;0.93;;;20.50;44.90;;;;;;6196745;28;20386;-73
2022/01/05 14:55:32;;;;;;;5.03;1.30;;;20.50;45.00;;;;;;6199853;28;20121;-73
2022/01/05 14:58:32;;;;;;;3.35;1.40;;;20.50;45.00;;;;;;6199971;28;20061;-73
2022/01/05 15:01:33;;;;;;;3.90;1.20;;;20.50;45.10;;;;;;6198747;28;20058;-73
2022/01/05 15:04:33;;;;;;;4.43;1.10;;;20.50;45.10;;;;;;6197919;28;20073;-73
2022/01/05 15:07:34;;;;;;;7.13;1.35;;;20.60;45.80;;;;;;6199156;28;20045;-74
2022/01/05 15:10:34;;;;;;;3.75;1.30;;;20.60;45.20;;;;;;6199987;28;20026;-73
2022/01/05 15:13:35;;;;;;;4.13;1.40;;;20.60;45.60;;;;;;6198290;28;20039;-74
2022/01/05 15:16:36;;;;;;;2.00;1.00;;;20.70;45.50;;;;;;6198039;28;20030;-73
2022/01/05 15:19:38;;;;;;;7.53;1.13;;;20.60;45.30;;;;;;6196598;28;20041;-73
2022/01/05 15:22:38;;;;;;;2.28;0.98;;;20.60;45.20;;;;;;6198794;28;20026;-73
2022/01/05 15:25:39;;;;;;;1.90;1.00;;;20.60;45.30;;;;;;6197355;28;20036;-73
2022/01/05 15:28:40;;;;;;;2.92;0.80;;;20.60;45.30;;;;;;6198424;28;22785;-73
2022/01/05 15:31:41;;;;;;;5.68;1.30;;;20.60;45.50;;;;;;6198351;28;20450;-73
2022/01/05 15:34:42;;;;;;;3.13;1.05;;;20.60;45.00;;;;;;6198662;28;20022;-73
2022/01/05 15:37:43;;;;;;;2.72;1.30;;;20.60;44.40;;;;;;6196712;28;20433;-73
2022/01/05 15:40:44;;;;;;;7.38;1.45;;;20.60;44.60;;;;;;6198968;28;20038;-73
2022/01/05 15:43:44;;;;;;;3.92;1.20;;;20.60;44.70;;;;;;6198258;28;20030;-73
2022/01/05 15:46:45;;;;;;;3.65;1.17;;;20.60;44.70;;;;;;6182358;28;20023;-72
2022/01/05 15:49:46;;;;;;;1.73;0.80;;;20.60;44.70;;;;;;6198968;28;20374;-74
2022/01/05 15:52:46;;;;;;;2.45;1.08;;;20.60;44.70;;;;;;6197665;28;20026;-73
2022/01/05 15:55:57;;;;;;;2.90;1.10;;;20.60;44.70;;;;;;6198767;28;20034;-73
2022/01/05 16:02:17;;;;;;;2.55;1.00;;;20.60;44.80;;;;;;6195786;28;20054;-73